• Join FlightAware (Why Join?)
  • Login
  • US Flag 
09:40AM EDT


 

Airport Tracker/Info


-or-


 

Live Flight TrackerFlight Track Log ✈ FSR411 ✈ 18-Jun-2013 ✈ KDET - KCMI

Flight Track Log - Related Links

Times and Time Zones

All times are in EDT time to prevent confusion due to time zone crossing. See the FSR411 flight status page for this flight to view local times or setup timezone preferences in your user account.

Time Position Orientation Groundspeed Altitude Reporting Facility
EDT Latitude Longitude Course Direction KTS MPH feet Rate Location/Type
04:39PM 42.4794 -83.0578 337° Northwest 237 273 4,600  Level Cleveland Center
04:40PM 42.5108 -83.1408 297° West 268 308 8,300 3,600 Climbing Cleveland Center
04:41PM 42.5044 -83.2447 265° West 310 357 12,000 2,100 Climbing Cleveland Center
04:42PM 42.3983 -83.3247 209° Southwest 411 473 13,000 540 Climbing Cleveland Center
04:43PM 42.3011 -83.3850 205° Southwest 402 463 13,300 960 Climbing Cleveland Center
04:44PM 42.1992 -83.4506 205° Southwest 397 457 15,000 2,100 Climbing Cleveland Center
04:45PM 42.0975 -83.5189 207° Southwest 409 471 17,500 2,400 Climbing Cleveland Center
04:46PM 41.9914 -83.5894 206° Southwest 419 482 19,800 2,460 Climbing Cleveland Center
04:47PM 41.8853 -83.6569 205° Southwest 419 482 22,500 2,580 Climbing Cleveland Center
04:48PM 41.7792 -83.7269 206° Southwest 419 482 25,000 2,700 Climbing Cleveland Center
04:49PM 41.6731 -83.7997 207° Southwest 419 482 28,000 1,500 Climbing Cleveland Center
04:50PM 41.5728 -83.8781 210° Southwest 419 482 28,000  Level Cleveland Center
04:50PM 41.5439 -83.9022 212° Southwest 418 481 28,000  Level Chicago Center
04:51PM 41.4247 -83.9939 210° Southwest 413 475 28,000  Level Chicago Center
04:52PM 41.3253 -84.0722 211° Southwest 414 476 28,000  Level Chicago Center
04:53PM 41.2425 -84.1736 223° Southwest 412 474 28,000  Level Chicago Center
04:55PM 41.2050 -84.3092 250° West 394 453 28,000  Level Chicago Center
04:56PM 41.1689 -84.4464 251° West 392 451 28,000  Level Chicago Center
04:57PM 41.1356 -84.5806 252° West 386 444 28,000  Level Chicago Center
04:58PM 41.0933 -84.7433 251° West 387 445 28,000  Level Chicago Center
04:59PM 41.0594 -84.8772 251° West 383 441 28,000  Level Chicago Center
05:00PM 41.0244 -85.0106 251° West 384 442 28,000  Level Chicago Center
05:01PM 40.9897 -85.1439 251° West 383 441 28,000  Level Chicago Center
05:02PM 40.9536 -85.2764 250° West 383 441 28,000  Level Chicago Center
05:03PM 40.9147 -85.4086 249° West 383 441 28,000  Level Chicago Center
05:04PM 40.8767 -85.5378 249° West 380 437 28,000  Level Chicago Center
05:05PM 40.8308 -85.6933 249° West 378 435 28,000  Level Chicago Center
05:06PM 40.7944 -85.8231 250° West 377 434 28,000 -60 Level Chicago Center
05:07PM 40.7556 -85.9531 248° West 379 436 27,900 -540 Descending Chicago Center
05:08PM 40.7178 -86.0822 249° West 379 436 27,000 -1,020 Descending Chicago Center
05:09PM 40.6750 -86.2242 248° West 384 442 25,900 -1,020 Descending Chicago Center
05:10PM 40.6358 -86.3558 249° West 388 447 24,900 -960 Descending Chicago Center
05:11PM 40.5956 -86.4911 249° West 396 456 24,000 -480 Descending Chicago Center
05:12PM 40.5539 -86.6275 248° West 402 463 24,000 -780 Level Chicago Center
05:13PM 40.5053 -86.7883 248° West 398 458 22,400 -1,800 Descending Chicago Center
05:14PM 40.4656 -86.9197 248° West 392 451 20,400 -1,980 Descending Chicago Center
05:15PM 40.4261 -87.0464 248° West 381 438 18,400 -1,920 Descending Chicago Center
05:16PM 40.3883 -87.1722 249° West 375 432 16,400 -1,920 Descending Chicago Center
05:17PM 40.3506 -87.2936 248° West 365 420 14,400 -2,160 Descending Chicago Center
05:18PM 40.3067 -87.4339 248° West 349 402 12,000 -2,220 Descending Chicago Center
05:19PM 40.2750 -87.5367 248° West 302 348 9,900 -2,040 Descending Chicago Center
05:20PM 40.2458 -87.6297 248° West 283 326 7,900 -1,980 Descending Chicago Center
05:21PM 40.2175 -87.7225 248° West 277 319 5,900 -1,800 Descending Chicago Center
05:22PM 40.1872 -87.8161 247° West 280 322 4,200 -1,260 Descending Chicago Center
05:24PM 40.1558 -87.9131 247° West 277 319 3,400 -780 Descending Chicago Center
05:25PM 40.1084 -88.0166 237° Southwest  Level FlightAware Approximate
05:32PM 40.0333 -88.2667 252° West  Level FlightAware Approximate
05:33PM 40.0388 -88.2778 252° West  Level Estimated
05:34PM 40.0388 -88.2778 252° West  Level Estimated
05:35PM 40.0388 -88.2778 252° West  Level Estimated
05:36PM 40.0388 -88.2778 252° West  Level Estimated
05:37PM 40.0388 -88.2778 252° West  Level Estimated
05:38PM 40.0388 -88.2778 252° West  Level Estimated